Time;durP1;ratioP1;P1;durP2;ratioP2;P2;SDS_P1;SDS_P2;PMS_P1;PMS_P2;Temp;Humidity;BMP_temperature;BMP_pressure;BME280_temperature;BME280_humidity;BME280_pressure;Samples;Min_cycle;Max_cycle;Signal;HPM_P1;HPM_P2
2023/08/03 00:00:36;;;;;;;;;;;15.10;99.90;;;;;;5037834;28;20274;-87
2023/08/03 00:03:02;;;;;;;;;;;15.20;99.90;;;;;;5037487;28;19991;-87
2023/08/03 00:05:28;;;;;;;;;;;15.30;99.90;;;;;;5037807;28;19966;-87
2023/08/03 00:11:22;;;;;;;;;;;15.20;99.90;;;;;;5055275;28;20368;-88
2023/08/03 00:13:47;;;;;;;;;;;15.20;99.90;;;;;;5071223;28;19909;-87
2023/08/03 00:16:13;;;;;;;;;;;15.10;99.90;;;;;;5053878;28;19908;-87
2023/08/03 00:18:38;;;;;;;;;;;15.10;99.90;;;;;;5037647;28;20000;-87
2023/08/03 00:21:13;;;;;;;;;;;15.00;99.90;;;;;;5053824;28;19909;-88
2023/08/03 00:23:39;;;;;;;;;;;15.10;99.90;;;;;;5037502;28;19913;-87
2023/08/03 00:26:04;;;;;;;;;;;15.10;99.90;;;;;;5053904;28;19963;-87
2023/08/03 00:28:30;;;;;;;;;;;15.10;99.90;;;;;;5037117;28;19920;-87
2023/08/03 00:30:56;;;;;;;;;;;15.10;99.90;;;;;;5053788;28;19963;-88
2023/08/03 00:33:22;;;;;;;;;;;15.10;99.90;;;;;;5052944;28;19913;-86
2023/08/03 00:35:47;;;;;;;;;;;15.00;99.90;;;;;;5036689;28;19919;-87
2023/08/03 00:38:13;;;;;;;;;;;15.00;99.90;;;;;;5086976;28;19919;-87
2023/08/03 00:40:39;;;;;;;;;;;15.10;99.90;;;;;;5036568;28;19924;-87
2023/08/03 00:43:04;;;;;;;;;;;15.10;99.90;;;;;;5036598;28;19912;-88
2023/08/03 00:45:30;;;;;;;;;;;15.10;99.90;;;;;;5053556;28;20508;-88
2023/08/03 00:48:22;;;;;;;;;;;15.10;99.90;;;;;;5036243;28;20329;-89
2023/08/03 00:50:48;;;;;;;;;;;15.00;99.90;;;;;;5048997;28;19908;-87
2023/08/03 00:53:14;;;;;;;;;;;15.00;99.90;;;;;;5036846;28;19908;-87
2023/08/03 00:55:40;;;;;;;;;;;15.10;99.90;;;;;;5036915;28;20499;-87
2023/08/03 00:58:06;;;;;;;;;;;15.20;99.90;;;;;;5036129;28;19923;-87
2023/08/03 01:00:31;;;;;;;;;;;15.20;99.90;;;;;;5036259;28;20284;-87
2023/08/03 01:02:57;;;;;;;;;;;15.20;99.90;;;;;;5036052;28;19939;-87
2023/08/03 01:05:25;;;;;;;;;;;15.30;99.90;;;;;;5052915;28;20054;-87
2023/08/03 01:07:51;;;;;;;;;;;15.40;99.90;;;;;;5036078;28;19920;-87
2023/08/03 01:10:16;;;;;;;;;;;15.40;99.90;;;;;;5036470;28;20352;-86
2023/08/03 01:13:09;;;;;;;;;;;15.40;99.90;;;;;;5036176;28;19909;-86
2023/08/03 01:15:35;;;;;;;;;;;15.40;99.90;;;;;;5051999;28;19908;-87
2023/08/03 01:18:00;;;;;;;;;;;15.50;99.90;;;;;;5052069;28;20383;-88
2023/08/03 01:20:26;;;;;;;;;;;15.50;99.90;;;;;;5052417;28;19999;-87
2023/08/03 01:22:52;;;;;;;;;;;15.60;99.90;;;;;;5052699;28;19916;-86
2023/08/03 01:25:17;;;;;;;;;;;15.60;99.90;;;;;;5051761;28;19913;-86
2023/08/03 01:27:47;;;;;;;;;;;15.70;99.90;;;;;;5052271;28;19919;-87
2023/08/03 01:30:12;;;;;;;;;;;15.70;99.90;;;;;;5052957;28;19909;-87
2023/08/03 01:32:38;;;;;;;;;;;15.70;99.90;;;;;;5086219;28;20394;-87
2023/08/03 01:35:06;;;;;;;;;;;15.70;99.90;;;;;;5035837;28;19913;-87
2023/08/03 01:37:33;;;;;;;;;;;15.70;99.90;;;;;;5035988;28;19955;-86
2023/08/03 01:39:59;;;;;;;;;;;15.70;99.90;;;;;;5036308;28;19908;-87
2023/08/03 01:42:25;;;;;;;;;;;15.60;99.90;;;;;;5053945;28;20348;-87
2023/08/03 01:44:50;;;;;;;;;;;15.60;99.90;;;;;;5035698;28;19920;-87
2023/08/03 01:47:16;;;;;;;;;;;15.70;99.90;;;;;;5068772;28;19916;-86
2023/08/03 01:49:42;;;;;;;;;;;15.70;99.90;;;;;;5036113;28;19912;-87
2023/08/03 01:52:07;;;;;;;;;;;15.70;99.90;;;;;;5052112;28;19909;-86
2023/08/03 01:54:33;;;;;;;;;;;15.70;99.90;;;;;;5035355;28;19909;-86
2023/08/03 01:56:58;;;;;;;;;;;15.80;99.90;;;;;;5052759;28;20391;-85
2023/08/03 01:59:24;;;;;;;;;;;15.70;99.90;;;;;;5051894;28;19908;-86
2023/08/03 02:01:50;;;;;;;;;;;15.70;99.90;;;;;;5051660;28;20276;-86
2023/08/03 02:04:16;;;;;;;;;;;15.70;99.90;;;;;;5035510;28;20578;-86
2023/08/03 02:06:48;;;;;;;;;;;15.70;99.90;;;;;;5085608;28;20280;-86
2023/08/03 02:09:13;;;;;;;;;;;15.70;99.90;;;;;;5035266;28;19912;-86
2023/08/03 02:11:39;;;;;;;;;;;15.70;99.90;;;;;;5051795;28;19915;-86
2023/08/03 02:14:05;;;;;;;;;;;15.60;99.90;;;;;;5035602;28;20303;-86
2023/08/03 02:16:31;;;;;;;;;;;15.60;99.90;;;;;;5052052;28;19991;-86
2023/08/03 02:18:56;;;;;;;;;;;15.60;99.90;;;;;;5035088;28;20286;-86
2023/08/03 02:21:22;;;;;;;;;;;15.60;99.90;;;;;;5051645;28;20015;-86
2023/08/03 02:23:48;;;;;;;;;;;15.60;99.90;;;;;;5035171;28;20006;-87
2023/08/03 02:26:14;;;;;;;;;;;15.60;99.90;;;;;;5085519;28;19912;-86
2023/08/03 02:28:42;;;;;;;;;;;15.60;99.90;;;;;;5035314;28;19909;-86
2023/08/03 02:31:08;;;;;;;;;;;15.60;99.90;;;;;;5068485;28;19958;-86
2023/08/03 02:33:41;;;;;;;;;;;15.70;99.90;;;;;;5052043;28;19908;-87
2023/08/03 02:36:07;;;;;;;;;;;15.70;99.90;;;;;;5051555;28;19931;-86
2023/08/03 02:38:33;;;;;;;;;;;15.60;99.90;;;;;;5051466;28;19956;-87
2023/08/03 02:40:59;;;;;;;;;;;15.60;99.90;;;;;;5051285;28;20300;-86
2023/08/03 02:43:29;;;;;;;;;;;15.60;99.90;;;;;;5035118;28;19908;-87
2023/08/03 02:45:56;;;;;;;;;;;15.50;99.90;;;;;;5034691;28;20011;-86
2023/08/03 02:48:22;;;;;;;;;;;15.50;99.90;;;;;;5034982;28;20384;-86
2023/08/03 02:50:52;;;;;;;;;;;15.50;99.90;;;;;;5035844;28;20007;-86
2023/08/03 02:53:18;;;;;;;;;;;15.40;99.90;;;;;;5035332;28;20360;-87
2023/08/03 02:55:46;;;;;;;;;;;15.40;99.90;;;;;;5051656;28;20382;-86
2023/08/03 02:58:11;;;;;;;;;;;15.40;99.90;;;;;;5034802;28;19909;-85
2023/08/03 03:00:37;;;;;;;;;;;15.40;99.90;;;;;;5051290;28;20003;-87
2023/08/03 03:03:03;;;;;;;;;;;15.30;99.90;;;;;;5051611;28;19928;-85
2023/08/03 03:05:36;;;;;;;;;;;15.30;99.90;;;;;;5051516;28;19923;-86
2023/08/03 03:08:33;;;;;;;;;;;15.30;99.90;;;;;;5051565;28;19999;-86
2023/08/03 03:10:59;;;;;;;;;;;15.30;99.90;;;;;;5051698;28;19908;-86
2023/08/03 03:13:25;;;;;;;;;;;15.30;99.90;;;;;;5055318;28;20078;-86
2023/08/03 03:15:51;;;;;;;;;;;15.30;99.90;;;;;;5038309;28;19913;-87
2023/08/03 03:18:17;;;;;;;;;;;15.30;99.90;;;;;;5055081;28;19912;-87
2023/08/03 03:20:43;;;;;;;;;;;15.30;99.90;;;;;;5038295;28;19937;-86
2023/08/03 03:23:11;;;;;;;;;;;15.30;99.90;;;;;;5055475;28;20370;-86
2023/08/03 03:25:38;;;;;;;;;;;15.30;99.90;;;;;;5038660;28;19912;-87
2023/08/03 03:28:06;;;;;;;;;;;15.30;99.90;;;;;;5038317;28;19944;-86
2023/08/03 03:30:35;;;;;;;;;;;15.30;99.90;;;;;;5039197;28;20390;-87
2023/08/03 03:33:01;;;;;;;;;;;15.30;99.90;;;;;;5038711;28;19912;-86
2023/08/03 03:35:27;;;;;;;;;;;15.20;99.90;;;;;;5039234;28;19905;-87
2023/08/03 03:37:53;;;;;;;;;;;15.20;99.90;;;;;;5038844;28;19919;-87
2023/08/03 03:40:23;;;;;;;;;;;15.10;99.90;;;;;;5039315;28;19920;-87
2023/08/03 03:42:50;;;;;;;;;;;15.10;99.90;;;;;;5038774;28;20331;-86
2023/08/03 03:45:16;;;;;;;;;;;15.00;99.90;;;;;;5038554;28;19909;-87
2023/08/03 03:47:45;;;;;;;;;;;15.00;99.90;;;;;;5088294;28;20427;-88
2023/08/03 03:50:11;;;;;;;;;;;14.90;99.90;;;;;;5038043;28;20251;-87
2023/08/03 03:52:52;;;;;;;;;;;14.90;99.90;;;;;;5054300;28;19992;-85
2023/08/03 03:55:17;;;;;;;;;;;14.90;99.90;;;;;;5037793;28;19909;-86
2023/08/03 03:57:48;;;;;;;;;;;14.80;99.90;;;;;;5085047;28;19908;-86
2023/08/03 04:00:14;;;;;;;;;;;14.80;99.90;;;;;;5033695;28;19975;-87
2023/08/03 04:02:42;;;;;;;;;;;14.70;99.90;;;;;;5056254;28;19915;-87
2023/08/03 04:05:12;;;;;;;;;;;14.80;99.90;;;;;;5087928;28;20302;-88
2023/08/03 04:07:38;;;;;;;;;;;14.80;99.90;;;;;;5038211;28;19916;-88
2023/08/03 04:10:03;;;;;;;;;;;14.70;99.90;;;;;;5054802;28;19909;-87
2023/08/03 04:12:29;;;;;;;;;;;14.70;99.90;;;;;;5038030;28;19991;-87
2023/08/03 04:14:55;;;;;;;;;;;14.70;99.90;;;;;;5054609;28;19917;-87
2023/08/03 04:17:20;;;;;;;;;;;14.70;99.90;;;;;;5037373;28;19909;-87
2023/08/03 04:19:46;;;;;;;;;;;14.70;99.90;;;;;;5038367;28;19962;-87
2023/08/03 04:22:12;;;;;;;;;;;14.70;99.90;;;;;;5037841;28;20047;-87
2023/08/03 04:24:38;;;;;;;;;;;14.70;99.90;;;;;;5053811;28;19909;-88
2023/08/03 04:27:06;;;;;;;;;;;14.60;99.90;;;;;;5038632;28;19919;-88
2023/08/03 04:29:32;;;;;;;;;;;14.60;99.90;;;;;;5054946;28;20330;-87
2023/08/03 04:31:58;;;;;;;;;;;14.60;99.90;;;;;;5040245;28;20363;-88
2023/08/03 04:34:24;;;;;;;;;;;14.60;99.90;;;;;;5059650;28;19955;-87
2023/08/03 04:37:06;;;;;;;;;;;14.40;99.90;;;;;;5042559;28;19955;-87
2023/08/03 04:43:00;;;;;;;;;;;13.60;99.90;;;;;;5049580;28;19920;-86
2023/08/03 04:45:27;;;;;;;;;;;13.40;99.90;;;;;;5037596;28;20356;-87
2023/08/03 04:47:54;;;;;;;;;;;13.30;99.90;;;;;;5037729;28;20284;-87
2023/08/03 04:50:22;;;;;;;;;;;13.30;99.90;;;;;;5053979;28;19908;-86
2023/08/03 04:52:49;;;;;;;;;;;13.30;99.90;;;;;;5053467;28;20256;-86
2023/08/03 04:55:16;;;;;;;;;;;13.20;99.90;;;;;;5036649;28;19916;-86
2023/08/03 04:57:41;;;;;;;;;;;13.00;99.90;;;;;;5052750;28;19909;-85
2023/08/03 05:00:09;;;;;;;;;;;13.00;99.90;;;;;;5036732;28;19909;-86
2023/08/03 05:02:57;;;;;;;;;;;12.90;99.90;;;;;;5086513;28;19913;-86
2023/08/03 05:05:23;;;;;;;;;;;12.90;99.90;;;;;;5049253;28;19916;-86
2023/08/03 05:07:49;;;;;;;;;;;12.80;99.90;;;;;;5052910;28;20382;-86
2023/08/03 05:10:18;;;;;;;;;;;12.80;99.90;;;;;;5069990;28;20323;-87
2023/08/03 05:12:44;;;;;;;;;;;12.80;99.90;;;;;;5036399;28;19913;-87
2023/08/03 05:15:10;;;;;;;;;;;12.80;99.90;;;;;;5053579;28;19909;-86
2023/08/03 05:17:36;;;;;;;;;;;12.80;99.90;;;;;;5036434;28;19912;-86
2023/08/03 05:20:02;;;;;;;;;;;12.80;99.90;;;;;;5036606;28;20340;-87
2023/08/03 05:22:28;;;;;;;;;;;12.90;99.90;;;;;;5036502;28;19917;-87
2023/08/03 05:24:53;;;;;;;;;;;12.90;99.90;;;;;;5036487;28;19912;-87
2023/08/03 05:27:19;;;;;;;;;;;12.90;99.90;;;;;;5036657;28;19912;-86
2023/08/03 05:29:44;;;;;;;;;;;12.90;99.90;;;;;;5053824;28;19908;-87
2023/08/03 05:32:10;;;;;;;;;;;13.00;99.90;;;;;;5036809;28;19905;-87
2023/08/03 05:34:59;;;;;;;;;;;13.10;99.90;;;;;;5069888;28;19913;-87
2023/08/03 05:37:24;;;;;;;;;;;13.30;99.90;;;;;;5053516;28;19909;-87
2023/08/03 05:39:50;;;;;;;;;;;13.40;99.90;;;;;;5046075;28;20408;-87
2023/08/03 05:42:17;;;;;;;;;;;13.50;99.90;;;;;;5045297;28;19924;-87
2023/08/03 05:44:42;;;;;;;;;;;13.60;99.90;;;;;;5035670;28;19947;-86
2023/08/03 05:47:09;;;;;;;;;;;13.60;99.90;;;;;;5033071;28;19909;-87
2023/08/03 05:49:35;;;;;;;;;;;13.70;99.90;;;;;;5050794;28;19962;-86
2023/08/03 05:52:00;;;;;;;;;;;13.70;99.90;;;;;;5035839;28;19913;-87
2023/08/03 05:54:26;;;;;;;;;;;13.70;99.90;;;;;;5035537;28;19912;-86
2023/08/03 05:56:51;;;;;;;;;;;13.80;99.90;;;;;;5050960;28;19909;-87
2023/08/03 05:59:19;;;;;;;;;;;13.80;99.90;;;;;;5031833;28;19904;-88
2023/08/03 06:01:46;;;;;;;;;;;13.70;99.90;;;;;;5084517;28;19992;-87
2023/08/03 06:04:11;;;;;;;;;;;13.70;99.90;;;;;;5035588;28;19995;-86
2023/08/03 06:06:37;;;;;;;;;;;13.70;99.90;;;;;;5045368;28;20012;-87
2023/08/03 06:09:03;;;;;;;;;;;13.60;99.90;;;;;;5035735;28;20360;-87
2023/08/03 06:11:30;;;;;;;;;;;13.60;99.90;;;;;;5049978;28;19952;-88
2023/08/03 06:13:56;;;;;;;;;;;13.50;99.90;;;;;;5048255;28;19935;-87
2023/08/03 06:16:25;;;;;;;;;;;13.60;99.90;;;;;;5035466;28;19953;-88
2023/08/03 06:18:52;;;;;;;;;;;13.50;99.90;;;;;;5035441;28;20245;-87
2023/08/03 06:21:18;;;;;;;;;;;13.50;99.90;;;;;;5035900;28;19909;-86
2023/08/03 06:23:45;;;;;;;;;;;13.50;99.90;;;;;;5044251;28;20029;-87
2023/08/03 06:26:12;;;;;;;;;;;13.50;99.90;;;;;;5051859;28;19993;-88
2023/08/03 06:28:38;;;;;;;;;;;13.50;99.90;;;;;;5064839;28;20279;-87
2023/08/03 06:31:22;;;;;;;;;;;13.40;99.90;;;;;;5033254;28;19959;-87
2023/08/03 06:33:47;;;;;;;;;;;13.40;99.90;;;;;;5079340;28;19913;-87
2023/08/03 06:36:20;;;;;;;;;;;13.40;99.90;;;;;;5047716;28;19912;-87
2023/08/03 06:38:47;;;;;;;;;;;13.50;99.90;;;;;;5048979;28;20360;-87
2023/08/03 06:41:13;;;;;;;;;;;13.50;99.90;;;;;;5049946;28;19948;-86
2023/08/03 06:43:38;;;;;;;;;;;13.50;99.90;;;;;;5044364;28;19949;-87
2023/08/03 06:46:04;;;;;;;;;;;13.60;99.90;;;;;;5034399;28;20375;-87
2023/08/03 06:48:31;;;;;;;;;;;13.50;99.90;;;;;;5048420;28;19931;-87
2023/08/03 06:50:56;;;;;;;;;;;13.20;99.90;;;;;;5033360;28;19913;-86
2023/08/03 06:53:22;;;;;;;;;;;13.10;99.90;;;;;;5049016;28;19908;-86
2023/08/03 06:55:48;;;;;;;;;;;13.00;99.90;;;;;;5051061;28;19908;-87
2023/08/03 06:58:15;;;;;;;;;;;12.90;99.90;;;;;;5031918;28;20343;-88
2023/08/03 07:00:41;;;;;;;;;;;12.80;99.90;;;;;;5048124;28;19979;-87
2023/08/03 07:03:07;;;;;;;;;;;12.80;99.90;;;;;;5034881;28;19952;-87
2023/08/03 07:05:33;;;;;;;;;;;12.70;99.90;;;;;;5045019;28;19917;-87
2023/08/03 07:07:58;;;;;;;;;;;12.70;99.90;;;;;;5034847;28;19955;-87
2023/08/03 07:10:24;;;;;;;;;;;12.60;99.90;;;;;;5035699;28;19916;-86
2023/08/03 07:12:50;;;;;;;;;;;12.70;99.90;;;;;;5051438;28;20529;-87
2023/08/03 07:15:15;;;;;;;;;;;12.60;99.90;;;;;;5032207;28;19912;-87
2023/08/03 07:17:41;;;;;;;;;;;12.70;99.90;;;;;;5048723;28;20269;-86
2023/08/03 07:20:08;;;;;;;;;;;12.80;99.90;;;;;;5034866;28;19924;-86
2023/08/03 07:22:35;;;;;;;;;;;12.80;99.90;;;;;;5044659;28;19915;-88
2023/08/03 07:25:00;;;;;;;;;;;12.70;99.90;;;;;;5035036;28;19935;-86
2023/08/03 07:27:27;;;;;;;;;;;12.80;99.90;;;;;;5042018;28;20380;-87
2023/08/03 07:29:55;;;;;;;;;;;12.80;99.90;;;;;;5050321;28;19913;-86
2023/08/03 07:32:21;;;;;;;;;;;12.80;99.90;;;;;;5034953;28;19908;-86
2023/08/03 07:34:46;;;;;;;;;;;12.90;99.90;;;;;;5066086;28;19996;-86
2023/08/03 07:37:12;;;;;;;;;;;12.90;99.90;;;;;;5034479;28;19984;-85
2023/08/03 07:39:38;;;;;;;;;;;13.00;99.90;;;;;;5027458;28;20271;-86
2023/08/03 07:42:03;;;;;;;;;;;13.00;99.90;;;;;;5043108;28;19913;-86
2023/08/03 07:44:32;;;;;;;;;;;13.00;99.90;;;;;;5049235;28;19912;-85
2023/08/03 07:46:58;;;;;;;;;;;13.00;99.90;;;;;;5033744;28;19916;-86
2023/08/03 07:49:23;;;;;;;;;;;13.00;99.90;;;;;;5047888;28;19917;-86
2023/08/03 07:51:49;;;;;;;;;;;13.00;99.90;;;;;;5044734;28;20013;-86
2023/08/03 07:54:15;;;;;;;;;;;13.00;99.90;;;;;;5045714;28;20000;-86
2023/08/03 07:56:41;;;;;;;;;;;13.10;99.90;;;;;;5041526;28;20111;-86
2023/08/03 07:59:07;;;;;;;;;;;13.10;99.90;;;;;;5037552;28;19991;-86
2023/08/03 08:01:32;;;;;;;;;;;13.30;99.90;;;;;;5030886;28;19917;-86
2023/08/03 08:03:58;;;;;;;;;;;13.30;99.90;;;;;;5051922;28;20516;-86
2023/08/03 08:06:24;;;;;;;;;;;13.30;99.90;;;;;;5037111;28;19944;-86
2023/08/03 08:08:51;;;;;;;;;;;13.50;99.90;;;;;;5054242;28;19991;-87
2023/08/03 08:11:17;;;;;;;;;;;13.40;99.90;;;;;;5056192;28;20279;-87
2023/08/03 08:13:43;;;;;;;;;;;13.30;99.90;;;;;;5055541;28;19909;-86
2023/08/03 08:16:09;;;;;;;;;;;13.40;99.90;;;;;;5038138;28;19999;-87
2023/08/03 08:18:35;;;;;;;;;;;13.30;99.90;;;;;;5055053;28;19950;-86
2023/08/03 08:21:02;;;;;;;;;;;13.40;99.90;;;;;;5088467;28;19908;-87
2023/08/03 08:23:28;;;;;;;;;;;13.50;99.90;;;;;;5054717;28;20372;-87
2023/08/03 08:25:53;;;;;;;;;;;13.70;99.90;;;;;;5054633;28;19947;-87
2023/08/03 08:28:19;;;;;;;;;;;13.90;99.90;;;;;;5037994;28;19999;-87
2023/08/03 08:30:45;;;;;;;;;;;13.90;99.90;;;;;;5087801;28;19935;-87
2023/08/03 08:33:11;;;;;;;;;;;13.90;99.90;;;;;;5054603;28;20272;-87
2023/08/03 08:35:41;;;;;;;;;;;14.00;99.90;;;;;;5037741;28;20287;-87
2023/08/03 08:38:09;;;;;;;;;;;13.90;99.90;;;;;;5054150;28;19909;-86
2023/08/03 08:40:35;;;;;;;;;;;14.00;99.90;;;;;;5037525;28;19912;-87
2023/08/03 08:43:00;;;;;;;;;;;13.90;99.90;;;;;;5070740;28;19925;-87
2023/08/03 08:45:26;;;;;;;;;;;13.80;99.90;;;;;;5037708;28;19999;-86
2023/08/03 08:47:52;;;;;;;;;;;13.70;99.90;;;;;;5053900;28;19908;-87
2023/08/03 08:50:17;;;;;;;;;;;13.70;99.90;;;;;;5037545;28;20323;-86
2023/08/03 08:52:44;;;;;;;;;;;13.70;99.90;;;;;;5037506;28;19955;-87
2023/08/03 08:55:14;;;;;;;;;;;13.80;99.90;;;;;;5070847;28;19908;-86
2023/08/03 08:57:39;;;;;;;;;;;13.80;99.90;;;;;;5037130;28;19912;-87
2023/08/03 09:00:06;;;;;;;;;;;13.90;99.90;;;;;;5053874;28;19962;-87
2023/08/03 09:02:32;;;;;;;;;;;14.00;99.90;;;;;;5037328;28;20356;-86
2023/08/03 09:05:07;;;;;;;;;;;13.90;99.90;;;;;;5087607;28;19916;-86
2023/08/03 09:07:33;;;;;;;;;;;13.70;99.90;;;;;;5037445;28;19909;-87
2023/08/03 09:10:02;;;;;;;;;;;13.50;99.90;;;;;;5036929;28;19905;-86
2023/08/03 09:12:28;;;;;;;;;;;13.40;99.90;;;;;;5064163;28;20253;-86
2023/08/03 09:14:55;;;;;;;;;;;13.30;99.90;;;;;;5035573;28;19913;-87
2023/08/03 09:17:22;;;;;;;;;;;13.30;99.90;;;;;;5069308;28;19971;-86
2023/08/03 09:19:48;;;;;;;;;;;13.20;99.90;;;;;;5047367;28;20283;-87
2023/08/03 09:22:14;;;;;;;;;;;13.20;99.90;;;;;;5036561;28;19923;-86
2023/08/03 09:24:40;;;;;;;;;;;13.20;99.90;;;;;;5052379;28;19916;-86
2023/08/03 09:27:06;;;;;;;;;;;13.30;99.90;;;;;;5082938;28;20278;-86
2023/08/03 09:29:32;;;;;;;;;;;13.30;99.90;;;;;;5047354;28;19920;-86
2023/08/03 09:32:04;;;;;;;;;;;13.20;99.90;;;;;;5068599;28;20419;-86
2023/08/03 09:34:37;;;;;;;;;;;13.30;99.90;;;;;;5081401;28;19909;-87
2023/08/03 09:37:03;;;;;;;;;;;13.40;99.90;;;;;;5054656;28;19919;-86
2023/08/03 09:39:34;;;;;;;;;;;13.30;99.90;;;;;;5066584;28;19915;-85
2023/08/03 09:42:06;;;;;;;;;;;13.30;99.90;;;;;;5069315;28;19912;-86
2023/08/03 09:44:33;;;;;;;;;;;13.30;99.90;;;;;;5062852;28;19916;-86
2023/08/03 09:47:03;;;;;;;;;;;13.30;99.90;;;;;;5056371;28;19919;-86
2023/08/03 09:52:36;;;;;;;;;;;13.40;99.90;;;;;;5083603;28;19920;-86
2023/08/03 09:55:07;;;;;;;;;;;13.30;99.90;;;;;;5040217;28;19909;-88
2023/08/03 09:57:34;;;;;;;;;;;13.30;99.90;;;;;;5071181;28;19909;-87
2023/08/03 10:00:05;;;;;;;;;;;13.30;99.90;;;;;;5026899;28;19916;-87
2023/08/03 10:02:42;;;;;;;;;;;13.50;99.90;;;;;;5053707;28;19908;-87
2023/08/03 10:05:08;;;;;;;;;;;13.60;99.90;;;;;;5058233;28;19921;-87
2023/08/03 10:07:36;;;;;;;;;;;13.80;99.90;;;;;;5080368;28;19905;-87
2023/08/03 10:10:04;;;;;;;;;;;13.80;99.90;;;;;;5058706;28;19983;-86
2023/08/03 10:13:01;;;;;;;;;;;13.90;99.90;;;;;;5081826;28;19908;-87
2023/08/03 10:15:27;;;;;;;;;;;13.90;99.90;;;;;;5042392;28;19913;-87
2023/08/03 10:17:53;;;;;;;;;;;14.00;99.90;;;;;;5067658;28;20268;-88
2023/08/03 10:20:20;;;;;;;;;;;14.00;99.90;;;;;;5038787;28;19915;-88
2023/08/03 10:23:04;;;;;;;;;;;14.00;99.90;;;;;;5072220;28;19904;-88
2023/08/03 10:25:30;;;;;;;;;;;14.00;99.90;;;;;;5055054;28;19935;-87
2023/08/03 10:28:22;;;;;;;;;;;14.00;99.90;;;;;;5047431;28;19999;-87
2023/08/03 10:31:00;;;;;;;;;;;14.10;99.90;;;;;;5032115;28;19909;-87
2023/08/03 10:36:56;;;;;;;;;;;13.90;99.90;;;;;;5042535;28;19959;-89
2023/08/03 10:39:46;;;;;;;;;;;13.80;99.90;;;;;;5075569;28;19956;-87
2023/08/03 10:42:23;;;;;;;;;;;13.70;99.90;;;;;;5035465;28;19912;-87
2023/08/03 10:44:49;;;;;;;;;;;13.70;99.90;;;;;;5034805;28;19916;-87
2023/08/03 10:50:56;;;;;;;;;;;13.80;99.90;;;;;;5048470;28;19954;-88
2023/08/03 10:53:22;;;;;;;;;;;13.90;99.90;;;;;;5034987;28;20458;-87
2023/08/03 10:55:48;;;;;;;;;;;14.10;99.90;;;;;;5035044;28;19954;-88
2023/08/03 10:58:13;;;;;;;;;;;14.20;99.90;;;;;;5051273;28;19912;-87
2023/08/03 11:00:42;;;;;;;;;;;14.20;99.90;;;;;;5034962;28;19912;-88
2023/08/03 11:03:07;;;;;;;;;;;14.20;99.90;;;;;;5035101;28;19904;-87
2023/08/03 11:05:33;;;;;;;;;;;14.50;99.90;;;;;;5035371;28;19919;-88
2023/08/03 11:07:59;;;;;;;;;;;14.70;99.90;;;;;;5034771;28;19916;-87
2023/08/03 11:10:25;;;;;;;;;;;15.10;99.90;;;;;;5053428;28;20363;-87
2023/08/03 11:12:52;;;;;;;;;;;15.20;99.90;;;;;;5035323;28;19909;-87
2023/08/03 11:15:18;;;;;;;;;;;15.50;99.90;;;;;;5051687;28;20348;-88
2023/08/03 11:17:46;;;;;;;;;;;15.40;99.90;;;;;;5068076;28;19912;-87
2023/08/03 11:20:14;;;;;;;;;;;15.20;99.90;;;;;;5051790;28;19909;-87
2023/08/03 11:22:40;;;;;;;;;;;15.10;99.90;;;;;;5051882;28;20015;-87
2023/08/03 11:25:06;;;;;;;;;;;15.00;99.90;;;;;;5035360;28;20406;-87
2023/08/03 11:27:32;;;;;;;;;;;14.90;99.90;;;;;;5051949;28;19909;-87
2023/08/03 11:29:58;;;;;;;;;;;15.00;99.90;;;;;;5035330;28;20382;-86
2023/08/03 11:32:28;;;;;;;;;;;15.10;99.90;;;;;;5036155;28;19916;-87
2023/08/03 11:35:04;;;;;;;;;;;15.10;99.90;;;;;;5039259;28;19909;-87
2023/08/03 11:37:30;;;;;;;;;;;15.40;99.90;;;;;;5064902;28;19916;-87
2023/08/03 11:40:11;;;;;;;;;;;15.40;99.90;;;;;;5039252;28;20391;-86
2023/08/03 11:42:38;;;;;;;;;;;15.50;99.90;;;;;;5072347;28;20015;-86
2023/08/03 11:45:04;;;;;;;;;;;15.80;99.90;;;;;;5055414;28;20916;-87
2023/08/03 11:47:40;;;;;;;;;;;15.60;99.90;;;;;;5055967;28;20000;-87
2023/08/03 11:50:06;;;;;;;;;;;15.70;99.90;;;;;;5038866;28;20359;-88
2023/08/03 11:52:32;;;;;;;;;;;15.70;99.90;;;;;;5038994;28;20271;-88
2023/08/03 11:54:57;;;;;;;;;;;15.80;99.90;;;;;;5038653;28;19915;-88
2023/08/03 12:00:11;;;;;;;;;;;15.90;99.90;;;;;;5054902;28;20025;-86
2023/08/03 12:02:41;;;;;;;;;;;15.80;99.90;;;;;;5055000;28;20271;-87
2023/08/03 12:05:07;;;;;;;;;;;15.60;99.90;;;;;;5071457;28;19916;-85
2023/08/03 12:07:32;;;;;;;;;;;15.40;99.90;;;;;;5038471;28;20003;-87
2023/08/03 12:09:58;;;;;;;;;;;15.50;99.90;;;;;;5054947;28;19936;-87
2023/08/03 12:12:24;;;;;;;;;;;15.60;99.90;;;;;;5054665;28;19912;-87
2023/08/03 12:14:49;;;;;;;;;;;15.60;99.90;;;;;;5071971;28;20749;-88
2023/08/03 12:17:15;;;;;;;;;;;15.70;99.90;;;;;;5054714;28;19989;-87
2023/08/03 12:19:41;;;;;;;;;;;15.90;99.90;;;;;;5054677;28;19944;-87
2023/08/03 12:22:06;;;;;;;;;;;16.20;99.90;;;;;;5054626;28;19909;-87
2023/08/03 12:24:35;;;;;;;;;;;16.50;99.90;;;;;;5088010;28;20275;-87
2023/08/03 12:27:02;;;;;;;;;;;16.40;99.90;;;;;;5038045;28;20004;-87
2023/08/03 12:29:27;;;;;;;;;;;16.40;99.90;;;;;;5055647;28;20264;-87
2023/08/03 12:31:53;;;;;;;;;;;16.20;99.90;;;;;;5054873;28;20003;-88
2023/08/03 12:34:18;;;;;;;;;;;15.90;99.90;;;;;;5088692;28;20268;-87
2023/08/03 12:36:44;;;;;;;;;;;15.90;99.90;;;;;;5054621;28;20267;-87
2023/08/03 12:39:10;;;;;;;;;;;15.90;99.90;;;;;;5054055;28;19908;-87
2023/08/03 12:41:35;;;;;;;;;;;16.00;99.90;;;;;;5054371;28;20387;-88
2023/08/03 12:44:04;;;;;;;;;;;16.20;99.90;;;;;;5054224;28;20268;-87
2023/08/03 12:46:30;;;;;;;;;;;16.40;99.90;;;;;;5038416;28;19966;-87
2023/08/03 12:48:58;;;;;;;;;;;16.50;99.90;;;;;;5071078;28;19916;-87
2023/08/03 12:51:23;;;;;;;;;;;16.70;99.90;;;;;;5037280;28;19915;-87
2023/08/03 12:53:49;;;;;;;;;;;17.00;99.90;;;;;;5054184;28;19905;-87
2023/08/03 12:56:18;;;;;;;;;;;17.10;99.90;;;;;;5037266;28;20256;-87
2023/08/03 12:58:43;;;;;;;;;;;16.90;99.90;;;;;;5036999;28;20391;-87
2023/08/03 13:01:09;;;;;;;;;;;16.80;99.90;;;;;;5037219;28;19952;-87
2023/08/03 13:03:36;;;;;;;;;;;16.90;99.90;;;;;;5088098;28;20386;-86
2023/08/03 13:06:02;;;;;;;;;;;17.00;99.90;;;;;;5054058;28;19913;-88
2023/08/03 13:08:27;;;;;;;;;;;17.20;99.90;;;;;;5054845;28;19911;-87
2023/08/03 13:10:53;;;;;;;;;;;17.10;99.90;;;;;;5038332;28;19962;-87
2023/08/03 13:13:19;;;;;;;;;;;17.00;99.90;;;;;;5054224;28;19909;-88
2023/08/03 13:16:12;;;;;;;;;;;17.20;99.90;;;;;;5037478;28;19999;-87
2023/08/03 13:18:38;;;;;;;;;;;17.70;99.90;;;;;;5062149;28;20283;-87
2023/08/03 13:21:05;;;;;;;;;;;17.90;99.90;;;;;;5053782;28;19909;-87
2023/08/03 13:23:31;;;;;;;;;;;17.60;99.90;;;;;;5053555;28;19905;-87
2023/08/03 13:25:56;;;;;;;;;;;17.40;99.90;;;;;;5037178;28;19913;-87
2023/08/03 13:28:22;;;;;;;;;;;17.50;99.90;;;;;;5053297;28;19916;-87
2023/08/03 13:30:47;;;;;;;;;;;17.70;99.90;;;;;;5036340;28;19913;-87
2023/08/03 13:33:13;;;;;;;;;;;17.90;99.90;;;;;;5036695;28;19927;-87
2023/08/03 13:35:38;;;;;;;;;;;17.80;99.90;;;;;;5053446;28;20335;-86
2023/08/03 13:38:04;;;;;;;;;;;17.70;99.90;;;;;;5037076;28;19954;-87
2023/08/03 13:40:30;;;;;;;;;;;17.60;99.90;;;;;;5053041;28;19909;-87
2023/08/03 13:42:55;;;;;;;;;;;17.50;99.90;;;;;;5036711;28;20386;-87
2023/08/03 13:45:21;;;;;;;;;;;17.70;99.90;;;;;;5036548;28;19913;-88
2023/08/03 13:47:46;;;;;;;;;;;18.40;99.90;;;;;;5037211;28;19909;-87
2023/08/03 13:50:13;;;;;;;;;;;18.90;99.90;;;;;;5052571;28;19924;-87
2023/08/03 13:52:39;;;;;;;;;;;19.10;99.90;;;;;;5053382;28;19912;-88
2023/08/03 13:55:04;;;;;;;;;;;19.00;99.90;;;;;;5036516;28;19908;-88
2023/08/03 13:57:30;;;;;;;;;;;19.00;99.90;;;;;;5053132;28;19909;-88
2023/08/03 13:59:56;;;;;;;;;;;19.10;99.90;;;;;;5053838;28;19912;-88
2023/08/03 14:02:21;;;;;;;;;;;19.00;99.90;;;;;;5052955;28;20360;-89
2023/08/03 14:04:50;;;;;;;;;;;18.70;99.90;;;;;;5053720;28;19912;-87
2023/08/03 14:07:17;;;;;;;;;;;18.60;99.90;;;;;;5054446;28;19917;-87
2023/08/03 14:09:43;;;;;;;;;;;19.20;99.90;;;;;;5036380;28;20279;-88
2023/08/03 14:12:09;;;;;;;;;;;19.90;99.90;;;;;;5036568;28;19950;-88
2023/08/03 14:14:34;;;;;;;;;;;20.50;99.90;;;;;;5036706;28;19970;-88
2023/08/03 14:17:00;;;;;;;;;;;20.40;99.90;;;;;;5036654;28;20265;-87
2023/08/03 14:19:25;;;;;;;;;;;20.10;99.90;;;;;;5053033;28;19913;-88
2023/08/03 14:21:51;;;;;;;;;;;19.60;99.90;;;;;;5036557;28;19958;-88
2023/08/03 14:24:17;;;;;;;;;;;19.40;99.90;;;;;;5035838;28;19913;-88
2023/08/03 14:26:43;;;;;;;;;;;19.20;99.90;;;;;;5052455;28;20718;-87
2023/08/03 14:29:08;;;;;;;;;;;19.00;99.90;;;;;;5035738;28;19952;-88
2023/08/03 14:32:12;;;;;;;;;;;18.70;99.90;;;;;;5052822;28;19909;-86
2023/08/03 14:34:37;;;;;;;;;;;18.40;99.90;;;;;;5035440;28;19909;-87
2023/08/03 14:37:06;;;;;;;;;;;18.20;99.90;;;;;;5053579;28;19958;-87